KLRF/LRF METAR and TAF weather

Enter ICAO airport designator
Station Type Date Time Source
KLRF METAR 2019/10/14 05:56 UTC NOAA

KLRF 140556Z AUTO 00000KT 10SM CLR M A3008 RMK AO2 SLPNO ALSTG ESTMD 51010 $


Station Type Date Time Source
KLRF Decoded METAR 2019/10/14 05:56 UTC NOAA

Little Rock Air Force Base, AR, United States (KLRF) 34-55N 092-09W
Oct 14, 2019 - 01:56 AM EDT / 2019.10.14 0556 UTC
Wind: Calm:0
Visibility: 10 mile(s):0
Sky conditions: clear
Pressure (altimeter): 30.08 in. Hg (1018 hPa)
Pressure tendency: 0.03 inches (1.0 hPa) higher than three hours ago
ob: KLRF 140556Z AUTO 00000KT 10SM CLR M A3008 RMK AO2 SLPNO ALSTG ESTMD 51010
cycle: 6

Station Type Date Time Source
KLRF TAF 2019/10/11 23:09 UTC NOAA

TAF TAF KLRF 112300Z 1123/1305 34006KT 9999 FEW050 BKN080 QNH3008INS
BECMG 1202/1203 34009KT 9999 SKC QNH3021INS TX15/1123Z TN05/1212Z LAST NO
AMDS AFT 1113 NEXT 1507

Example: see airport list